Time;durP1;ratioP1;P1;durP2;ratioP2;P2;SDS_P1;SDS_P2;PMS_P1;PMS_P2;Temp;Humidity;BMP_temperature;BMP_pressure;BME280_temperature;BME280_humidity;BME280_pressure;Samples;Min_cycle;Max_cycle;Signal;HPM_P1;HPM_P2
2023/03/26 00:08:02;;;;;;;1999.90;999.90;;;9.90;99.90;;;;;;6698328;87;20175;-82
2023/03/26 00:18:03;;;;;;;1999.90;999.90;;;9.80;99.90;;;;;;6701373;88;20199;-81
2023/03/26 00:28:06;;;;;;;1999.90;999.90;;;9.70;99.90;;;;;;6688070;89;20319;-81
2023/03/26 00:38:07;;;;;;;1999.90;999.90;;;9.70;99.90;;;;;;6686093;89;20199;-82
2023/03/26 00:48:08;;;;;;;1999.90;999.90;;;9.70;99.90;;;;;;6684858;88;20610;-79
2023/03/26 00:58:09;;;;;;;1999.90;999.90;;;9.60;99.90;;;;;;6698463;88;20206;-79
2023/03/26 01:08:19;;;;;;;1999.90;999.90;;;9.70;99.90;;;;;;6687492;87;20183;-80
2023/03/26 01:18:25;;;;;;;1999.90;999.90;;;9.60;99.90;;;;;;6694934;88;20186;-80
2023/03/26 01:28:30;;;;;;;1999.90;999.90;;;9.60;99.90;;;;;;6695537;88;20159;-80
2023/03/26 01:38:58;;;;;;;1999.90;999.90;;;9.60;99.90;;;;;;6705772;87;20223;-82
2023/03/26 01:48:59;;;;;;;1999.90;999.90;;;9.60;99.90;;;;;;6681222;89;20618;-80
2023/03/26 01:59:07;;;;;;;1999.90;999.90;;;9.50;99.90;;;;;;6668072;89;20220;-80
2023/03/26 02:09:13;;;;;;;1999.90;999.90;;;9.50;99.90;;;;;;6670018;88;20192;-79
2023/03/26 02:19:20;;;;;;;1999.90;999.90;;;9.50;99.90;;;;;;6670168;88;20188;-80
2023/03/26 02:29:21;;;;;;;1999.90;999.90;;;9.50;99.90;;;;;;6669375;88;20297;-80
2023/03/26 02:39:22;;;;;;;1999.90;999.90;;;9.40;99.90;;;;;;6671681;89;20246;-80
2023/03/26 02:49:23;;;;;;;1999.90;999.90;;;9.40;99.90;;;;;;6669477;89;20238;-80
2023/03/26 02:59:23;;;;;;;1999.90;999.90;;;9.40;99.90;;;;;;6681180;88;20218;-80
2023/03/26 03:09:24;;;;;;;1999.90;999.90;;;9.40;99.90;;;;;;6668663;89;20254;-80
2023/03/26 03:19:24;;;;;;;1999.90;999.90;;;9.40;99.90;;;;;;6669830;89;20217;-81
2023/03/26 03:29:25;;;;;;;1999.90;999.90;;;9.50;99.90;;;;;;6668813;89;20199;-80
2023/03/26 03:39:25;;;;;;;1999.90;999.90;;;9.60;99.90;;;;;;6679767;88;20212;-81
2023/03/26 03:49:26;;;;;;;1999.90;999.90;;;9.50;99.90;;;;;;6669258;89;20614;-81
2023/03/26 03:59:26;;;;;;;1999.90;999.90;;;9.30;99.90;;;;;;6667919;89;20881;-81
2023/03/26 04:19:30;;;;;;;1999.90;999.90;;;8.90;99.90;;;;;;6716818;88;20230;-80
2023/03/26 04:29:41;;;;;;;1999.90;999.90;;;8.80;99.90;;;;;;6710962;88;20232;-81
2023/03/26 04:39:43;;;;;;;1999.90;999.90;;;8.70;99.90;;;;;;6715484;88;20278;-80
2023/03/26 04:49:46;;;;;;;1999.90;999.90;;;8.60;99.90;;;;;;6711104;88;20185;-78
2023/03/26 04:59:46;;;;;;;1999.90;999.90;;;8.50;99.90;;;;;;6703695;88;20198;-80
2023/03/26 05:09:47;;;;;;;1999.90;999.90;;;8.40;99.90;;;;;;6695325;88;20217;-80
2023/03/26 05:19:48;;;;;;;1999.90;999.90;;;8.20;99.90;;;;;;6695070;88;20299;-78
2023/03/26 05:29:48;;;;;;;1999.90;999.90;;;8.20;99.90;;;;;;6696066;88;20682;-78
2023/03/26 05:39:55;;;;;;;1999.90;999.90;;;8.20;99.90;;;;;;6696195;89;20653;-80
2023/03/26 05:49:56;;;;;;;1999.90;999.90;;;8.10;99.90;;;;;;6693554;89;20660;-80
2023/03/26 05:59:56;;;;;;;1999.90;999.90;;;8.10;99.90;;;;;;6708987;88;20199;-78
2023/03/26 06:09:57;;;;;;;1999.90;999.90;;;8.00;99.90;;;;;;6693488;89;20219;-78
2023/03/26 06:19:57;;;;;;;1999.90;999.90;;;7.90;99.90;;;;;;6695254;89;20179;-79
2023/03/26 06:29:58;;;;;;;1999.90;999.90;;;7.90;99.90;;;;;;6700209;88;20204;-77
2023/03/26 06:39:59;;;;;;;1999.90;999.90;;;7.80;99.90;;;;;;6700082;88;20816;-80
2023/03/26 06:49:59;;;;;;;1999.90;999.90;;;7.80;99.90;;;;;;6705155;88;20196;-80
2023/03/26 07:00:00;;;;;;;1999.90;999.90;;;7.80;99.90;;;;;;6709050;88;20654;-80
2023/03/26 08:11:02;;;;;;;1999.90;999.90;;;7.80;99.90;;;;;;3677682;77;20266;-82
2023/03/26 08:21:08;;;;;;;1999.90;999.90;;;7.90;99.90;;;;;;6759430;88;20188;-80
2023/03/26 08:41:23;;;;;;;1999.90;999.90;;;7.80;99.90;;;;;;6733375;88;20630;-82
2023/03/26 08:51:56;;;;;;;1999.90;999.90;;;7.80;99.90;;;;;;6722868;88;20245;-82
2023/03/26 09:42:43;;;;;;;1999.90;999.90;;;7.80;99.90;;;;;;6799445;77;20200;-82
2023/03/26 09:52:50;;;;;;;1999.90;999.90;;;8.30;99.90;;;;;;6765812;88;20157;-83
2023/03/26 10:03:12;;;;;;;1999.90;999.90;;;8.70;99.90;;;;;;6756130;88;20193;-79
2023/03/26 10:13:24;;;;;;;1999.90;999.90;;;8.70;99.90;;;;;;6764667;88;20181;-79
2023/03/26 10:23:44;;;;;;;1999.90;999.90;;;9.20;99.90;;;;;;6747742;88;20273;-78
2023/03/26 10:34:12;;;;;;;1999.90;999.90;;;9.00;99.90;;;;;;6752829;88;20237;-78
2023/03/26 10:44:23;;;;;;;1999.90;999.90;;;8.80;99.90;;;;;;6741815;88;20201;-80
2023/03/26 10:54:46;;;;;;;1999.90;999.90;;;8.70;99.90;;;;;;6734358;88;20169;-80
2023/03/26 11:05:14;;;;;;;1999.90;999.90;;;8.70;99.90;;;;;;6743764;88;20333;-79
2023/03/26 11:15:28;;;;;;;1999.90;999.90;;;9.00;99.90;;;;;;6746371;88;20180;-79
2023/03/26 11:26:05;;;;;;;1999.90;999.90;;;9.20;99.90;;;;;;6742549;88;20198;-81
2023/03/26 11:36:13;;;;;;;1999.90;999.90;;;9.10;99.90;;;;;;6737090;88;20236;-79
2023/03/26 11:46:15;;;;;;;1999.90;999.90;;;9.10;99.90;;;;;;6742417;88;20250;-82
2023/03/26 11:56:19;;;;;;;1999.90;999.90;;;9.00;99.90;;;;;;6749891;88;20199;-80
2023/03/26 12:06:27;;;;;;;1999.90;999.90;;;8.80;99.90;;;;;;6748774;88;20193;-80
2023/03/26 12:16:28;;;;;;;1999.90;999.90;;;8.60;99.90;;;;;;6760103;88;20746;-81
2023/03/26 12:26:44;;;;;;;1999.90;999.90;;;8.20;99.90;;;;;;6766232;88;20165;-81
2023/03/26 12:46:52;;;;;;;1999.90;999.90;;;8.60;99.90;;;;;;6743674;88;20220;-80
2023/03/26 12:57:20;;;;;;;1999.90;999.90;;;8.80;99.90;;;;;;6742273;88;20182;-80
2023/03/26 13:07:48;;;;;;;1999.90;999.90;;;9.10;99.90;;;;;;6731576;88;20170;-81
2023/03/26 13:18:00;;;;;;;1999.90;999.90;;;9.30;99.90;;;;;;6679917;89;20224;-80
2023/03/26 13:28:26;;;;;;;1999.90;999.90;;;9.40;99.90;;;;;;6696119;88;20280;-79
2023/03/26 13:38:32;;;;;;;1999.90;999.90;;;9.60;99.90;;;;;;6732148;88;20212;-83
2023/03/26 13:49:14;;;;;;;1999.90;999.90;;;9.80;99.90;;;;;;6810469;77;20237;-83
2023/03/26 13:59:38;;;;;;;1999.90;999.90;;;9.80;99.90;;;;;;6781158;87;20183;-81
2023/03/26 14:10:13;;;;;;;1999.90;999.90;;;9.60;99.90;;;;;;6752060;88;20189;-80
2023/03/26 14:20:52;;;;;;;1999.90;999.90;;;9.40;99.90;;;;;;6743004;88;20396;-80
2023/03/26 14:31:26;;;;;;;1999.90;999.90;;;9.30;99.90;;;;;;6707629;88;20309;-80
2023/03/26 14:41:49;;;;;;;1999.90;999.90;;;9.00;99.90;;;;;;6744622;88;20716;-79
2023/03/26 14:52:14;;;;;;;1999.90;999.90;;;9.00;99.90;;;;;;6747634;88;20301;-80
2023/03/26 15:02:52;;;;;;;1999.90;999.90;;;9.40;99.90;;;;;;6745650;88;20272;-80
2023/03/26 15:13:30;;;;;;;1999.90;999.90;;;9.20;99.90;;;;;;6746631;88;20197;-80
2023/03/26 15:24:09;;;;;;;1999.90;999.90;;;9.10;99.90;;;;;;6750081;88;20378;-79
2023/03/26 15:34:41;;;;;;;1999.90;999.90;;;9.20;99.90;;;;;;6696628;88;20780;-79
2023/03/26 15:44:51;;;;;;;1999.90;999.90;;;9.30;99.90;;;;;;6747292;88;20217;-78
2023/03/26 15:54:57;;;;;;;1999.90;999.90;;;9.20;99.90;;;;;;6744830;88;20184;-79
2023/03/26 16:05:27;;;;;;;1999.90;999.90;;;9.20;99.90;;;;;;6747356;88;20196;-78
2023/03/26 16:15:50;;;;;;;1999.90;999.90;;;9.30;99.90;;;;;;6741653;77;20325;-80
2023/03/26 16:25:58;;;;;;;1999.90;999.90;;;9.20;99.90;;;;;;6736960;88;20190;-82
2023/03/26 16:36:20;;;;;;;1999.90;999.90;;;9.10;99.90;;;;;;6723873;88;20646;-80
2023/03/26 16:46:27;;;;;;;1999.90;999.90;;;8.90;99.90;;;;;;6730087;88;20177;-85
2023/03/26 16:56:46;;;;;;;1999.90;999.90;;;8.90;99.90;;;;;;6720549;88;20789;-81
2023/03/26 17:07:12;;;;;;;1999.90;999.90;;;8.90;99.90;;;;;;6729126;88;20376;-81
2023/03/26 17:17:39;;;;;;;1999.90;999.90;;;8.80;99.90;;;;;;6728991;88;20720;-82
2023/03/26 17:27:58;;;;;;;1999.90;999.90;;;8.80;99.90;;;;;;6724384;88;20192;-83
2023/03/26 17:37:59;;;;;;;1999.90;999.90;;;8.50;99.90;;;;;;6727436;88;20980;-80
2023/03/26 17:48:15;;;;;;;1999.90;999.90;;;8.50;99.90;;;;;;6732241;88;20198;-81
2023/03/26 17:58:26;;;;;;;1999.90;999.90;;;8.40;99.90;;;;;;6732759;88;20786;-84
2023/03/26 18:08:57;;;;;;;1999.90;999.90;;;8.40;99.90;;;;;;6732654;88;20169;-83
2023/03/26 18:19:00;;;;;;;1999.90;999.90;;;8.30;99.90;;;;;;6732843;88;20167;-84
2023/03/26 18:29:24;;;;;;;1999.90;999.90;;;8.00;99.90;;;;;;6727896;88;20200;-81
2023/03/26 18:39:25;;;;;;;1999.90;999.90;;;7.90;99.90;;;;;;6724689;88;20147;-81
2023/03/26 18:49:28;;;;;;;1999.90;999.90;;;7.80;99.90;;;;;;6731201;88;20715;-79
2023/03/26 18:59:33;;;;;;;1999.90;999.90;;;7.80;99.90;;;;;;6716045;88;20240;-81
2023/03/26 19:09:34;;;;;;;1999.90;999.90;;;7.80;99.90;;;;;;6716759;88;20624;-80
2023/03/26 19:19:36;;;;;;;1999.90;999.90;;;7.80;99.90;;;;;;6719826;88;20209;-80
2023/03/26 19:29:37;;;;;;;1999.90;999.90;;;7.70;99.90;;;;;;6732970;88;20194;-79
2023/03/26 19:39:43;;;;;;;1999.90;999.90;;;7.70;99.90;;;;;;6738446;88;20180;-80
2023/03/26 19:49:53;;;;;;;;;;;7.60;99.90;;;;;;6736728;88;20196;-79
2023/03/26 19:59:54;;;;;;;1999.90;999.90;;;7.40;99.90;;;;;;6722851;88;20111;-81
2023/03/26 20:09:55;;;;;;;1999.90;999.90;;;7.20;99.90;;;;;;6730742;88;20197;-81
2023/03/26 20:19:55;;;;;;;1999.90;999.90;;;7.10;99.90;;;;;;6719389;88;20198;-81
2023/03/26 20:29:56;;;;;;;1999.90;999.90;;;6.90;99.90;;;;;;6717567;88;20337;-81
2023/03/26 20:39:57;;;;;;;1999.90;999.90;;;7.00;99.90;;;;;;6718511;88;21117;-80
2023/03/26 20:49:57;;;;;;;1999.90;999.90;;;7.00;99.90;;;;;;6717842;88;20198;-82
2023/03/26 20:59:59;;;;;;;1999.90;999.90;;;7.00;99.90;;;;;;6724574;88;20256;-79
2023/03/26 21:10:02;;;;;;;1999.90;999.90;;;7.00;99.90;;;;;;6723935;88;20186;-82
2023/03/26 21:20:10;;;;;;;1999.90;999.90;;;6.80;99.90;;;;;;6722716;88;20173;-82
2023/03/26 21:30:13;;;;;;;1999.90;999.90;;;6.80;99.90;;;;;;6700996;88;20284;-81
2023/03/26 21:40:16;;;;;;;1999.90;999.90;;;6.80;99.90;;;;;;6708837;88;20364;-80
2023/03/26 21:50:20;;;;;;;1999.90;999.90;;;6.80;99.90;;;;;;6693987;89;20280;-81
2023/03/26 22:00:28;;;;;;;1999.90;999.90;;;6.70;99.90;;;;;;6713341;88;20296;-80
2023/03/26 22:20:32;;;;;;;1999.90;999.90;;;6.50;99.90;;;;;;6746043;88;20213;-82
2023/03/26 22:30:33;;;;;;;1999.90;999.90;;;6.40;99.90;;;;;;6750729;88;20162;-81
2023/03/26 22:40:34;;;;;;;1999.90;999.90;;;6.40;99.90;;;;;;6748545;88;20214;-81
2023/03/26 22:50:34;;;;;;;1999.90;999.90;;;6.30;99.90;;;;;;6746754;88;20598;-81
2023/03/26 23:00:35;;;;;;;1999.90;999.90;;;6.10;99.90;;;;;;6746867;88;20252;-83
2023/03/26 23:10:35;;;;;;;1999.90;999.90;;;5.90;99.90;;;;;;6748932;88;20162;-81
2023/03/26 23:20:38;;;;;;;1999.90;999.90;;;5.70;99.90;;;;;;6766432;88;20213;-79
2023/03/26 23:30:39;;;;;;;1999.90;999.90;;;5.70;99.90;;;;;;6764327;88;20194;-79
2023/03/26 23:40:42;;;;;;;1999.90;999.90;;;5.30;99.90;;;;;;6750183;88;20190;-79
2023/03/26 23:50:47;;;;;;;1999.90;999.90;;;5.10;99.90;;;;;;6755384;88;20177;-80
